Hovedside
METAR-TAF:

METAR-TAF

Lufthavner :

Luleå, Sverige

Luleå lufthavn

breddegrad: 65-33N, lengdegrad: 022-08E, høyde over havet: 17 m

Gjeldene værobservasjon

Denne rapporten ble laget for 26 minutter siden, klokken 13:20 UTC
Vind 10 kt fra Nord-nordvest
Temperatur -13°C
Luftfuktighet 78%
Trykk 1045 hPa
Sikt 10 km eller mer
ingen skyer under 1500 m og ingen bygeskyer

METAR: ESPA 251320Z 33010KT CAVOK M13/M16 Q1045

Tid: 14:46 (13:46 UTC)

Varsel

Denne rapporten ble laget for 2 timer og 16 minutter siden, klokken 11:30 UTC
Varsel gyldig fra 25. klokken 12 UTC til 25. klokken 21 UTC
Vind 10 kt fra Nord-nordvest
Sikt 10 km eller mer
ingen skyer under 1500 m og ingen bygeskyer

TAF: ESPA 251130Z 2512/2521 33010KT CAVOK

Værobservasjoner og værvarsel for over 4000 flyplasser (METAR- og TAF-rapporter).

Tilgjengelige stasjoner er representert av de røde og gule prikkene på kartet.

Hold musepekeren over prikken for å se navnet på stasjonen.

Klikk så for å se værobservasjoner og -varsler.

For å forandre kartet kan du klikke på den grønne knappen med svart kryss for å zoome inn, på den grønne knappen med strek for å zoome ut, eller på de grønne pilene for å se tilstøtende kart.


METAR-TAF: